Time;durP1;ratioP1;P1;durP2;ratioP2;P2;SDS_P1;SDS_P2;PMS_P1;PMS_P2;Temp;Humidity;BMP_temperature;BMP_pressure;BME280_temperature;BME280_humidity;BME280_pressure;Samples;Min_cycle;Max_cycle;Signal;HPM_P1;HPM_P2
2022/11/21 00:01:37;;;;;;;11.63;10.53;;;5.90;99.90;;;;;;6172368;28;20479;-62
2022/11/21 00:04:41;;;;;;;15.33;11.07;;;5.90;99.90;;;;;;6169114;28;20977;-61
2022/11/21 00:07:44;;;;;;;10.37;9.13;;;5.90;99.90;;;;;;6172202;28;20489;-62
2022/11/21 00:10:48;;;;;;;11.80;9.93;;;5.90;99.90;;;;;;6175859;28;20537;-62
2022/11/21 00:13:52;;;;;;;13.37;10.93;;;5.90;99.90;;;;;;6174872;28;20475;-61
2022/11/21 00:16:56;;;;;;;14.13;10.90;;;5.80;99.90;;;;;;6168801;28;20488;-62
2022/11/21 00:19:59;;;;;;;14.10;10.87;;;5.80;99.90;;;;;;6166042;28;20494;-62
2022/11/21 00:23:03;;;;;;;13.17;10.47;;;5.90;99.90;;;;;;6167446;28;20478;-61
2022/11/21 00:26:07;;;;;;;13.90;10.10;;;5.80;99.90;;;;;;6177868;28;20489;-61
2022/11/21 00:29:11;;;;;;;14.30;10.63;;;5.80;99.90;;;;;;6179091;28;20532;-62
2022/11/21 00:32:14;;;;;;;12.73;10.50;;;5.80;99.90;;;;;;6178945;28;20997;-62
2022/11/21 00:35:18;;;;;;;11.70;9.80;;;5.80;99.90;;;;;;6174708;28;20544;-62
2022/11/21 00:38:23;;;;;;;11.37;9.43;;;5.80;99.90;;;;;;6178516;28;20540;-62
2022/11/21 00:41:26;;;;;;;12.23;10.53;;;5.80;99.90;;;;;;6178779;28;20807;-61
2022/11/21 00:44:30;;;;;;;11.00;9.00;;;5.60;99.90;;;;;;6178252;28;20858;-61
2022/11/21 00:47:33;;;;;;;12.40;9.83;;;5.60;99.90;;;;;;6178331;28;20480;-61
2022/11/21 00:50:36;;;;;;;9.27;8.00;;;5.60;99.90;;;;;;6178683;28;20541;-62
2022/11/21 00:53:40;;;;;;;9.23;8.30;;;5.60;99.90;;;;;;6178395;28;20473;-62
2022/11/21 00:56:43;;;;;;;9.77;8.70;;;5.50;99.90;;;;;;6178567;28;20470;-61
2022/11/21 00:59:47;;;;;;;10.50;9.40;;;5.40;99.90;;;;;;6178147;28;20477;-61
2022/11/21 01:02:50;;;;;;;9.00;7.90;;;5.40;99.90;;;;;;6165521;28;20888;-61
2022/11/21 01:05:53;;;;;;;12.30;7.97;;;5.30;99.90;;;;;;6154286;28;20478;-61
2022/11/21 01:08:57;;;;;;;9.17;7.93;;;5.30;99.90;;;;;;6153839;28;20451;-62
2022/11/21 01:12:00;;;;;;;8.93;8.03;;;5.20;99.90;;;;;;6154648;28;20478;-62
2022/11/21 01:15:05;;;;;;;9.57;8.47;;;5.10;99.90;;;;;;6154042;28;20466;-61
2022/11/21 01:18:09;;;;;;;10.37;8.73;;;5.10;99.90;;;;;;6153939;28;20789;-61
2022/11/21 01:21:14;;;;;;;10.27;9.17;;;5.10;99.90;;;;;;6153574;28;20479;-61
2022/11/21 01:24:18;;;;;;;10.53;7.90;;;5.10;99.90;;;;;;6153765;28;20474;-61
2022/11/21 01:27:21;;;;;;;10.97;9.10;;;5.10;99.90;;;;;;6153592;28;20545;-61
2022/11/21 01:30:25;;;;;;;10.00;8.80;;;5.10;99.90;;;;;;6153383;28;21086;-62
2022/11/21 01:33:28;;;;;;;9.80;8.80;;;5.00;99.90;;;;;;6158264;28;20482;-61
2022/11/21 01:36:33;;;;;;;10.63;8.87;;;5.00;99.90;;;;;;6148969;28;20505;-61
2022/11/21 01:39:37;;;;;;;10.10;9.13;;;4.90;99.90;;;;;;6153611;28;21017;-62
2022/11/21 01:42:58;;;;;;;8.40;7.40;;;4.80;99.90;;;;;;6153558;28;20542;-63
2022/11/21 01:46:06;;;;;;;9.43;8.43;;;4.70;99.90;;;;;;6152310;28;20773;-62
2022/11/21 01:49:13;;;;;;;9.53;8.23;;;4.60;99.90;;;;;;6152419;28;20471;-62
2022/11/21 01:52:22;;;;;;;9.27;8.37;;;4.50;99.90;;;;;;6152981;28;20478;-61
2022/11/21 01:55:25;;;;;;;9.43;8.40;;;4.50;99.90;;;;;;6152686;28;20486;-61
2022/11/21 01:58:30;;;;;;;12.03;9.77;;;4.50;99.90;;;;;;6152789;28;20479;-62
2022/11/21 02:01:36;;;;;;;11.57;9.70;;;4.40;99.90;;;;;;6152551;28;20943;-62
2022/11/21 02:04:42;;;;;;;12.33;10.03;;;4.40;99.90;;;;;;6152631;28;20523;-61
2022/11/21 02:07:48;;;;;;;15.60;13.47;;;4.40;99.90;;;;;;6152658;28;21019;-61
2022/11/21 02:11:01;;;;;;;24.33;21.07;;;4.40;99.90;;;;;;6152828;28;20475;-61
2022/11/21 02:14:05;;;;;;;59.23;39.73;;;4.40;99.90;;;;;;6152920;28;20546;-61
2022/11/21 02:17:10;;;;;;;24.50;21.93;;;4.50;99.90;;;;;;6152965;28;20478;-61
2022/11/21 02:20:15;;;;;;;17.60;15.63;;;4.60;99.90;;;;;;6155380;28;20513;-62
2022/11/21 02:23:25;;;;;;;18.27;13.37;;;4.60;99.90;;;;;;6154248;28;20471;-61
2022/11/21 02:26:30;;;;;;;17.13;12.30;;;4.60;99.90;;;;;;6155951;28;20478;-61
2022/11/21 02:29:34;;;;;;;17.60;13.80;;;4.70;99.90;;;;;;6152447;28;20483;-61
2022/11/21 02:32:39;;;;;;;23.70;14.60;;;4.70;99.90;;;;;;6151977;28;20859;-62
2022/11/21 02:35:44;;;;;;;18.47;13.00;;;4.70;99.90;;;;;;6152261;28;20820;-62
2022/11/21 02:38:47;;;;;;;16.07;11.87;;;4.80;99.90;;;;;;6151989;28;20451;-61
2022/11/21 02:41:58;;;;;;;17.50;13.33;;;4.80;99.90;;;;;;6157230;28;20493;-62
2022/11/21 02:45:08;;;;;;;14.33;10.83;;;5.00;99.90;;;;;;6160489;28;20526;-62
2022/11/21 02:48:12;;;;;;;19.57;14.03;;;5.00;99.90;;;;;;6160030;28;20470;-62
2022/11/21 02:51:15;;;;;;;22.30;14.87;;;5.00;99.90;;;;;;6158621;28;20463;-62
2022/11/21 02:54:18;;;;;;;19.70;15.03;;;5.00;99.90;;;;;;6153933;28;20485;-62
2022/11/21 02:57:23;;;;;;;22.30;15.10;;;5.00;99.90;;;;;;6154494;28;20479;-62
2022/11/21 03:00:26;;;;;;;23.37;15.73;;;5.10;99.90;;;;;;6153350;28;20955;-63
2022/11/21 03:03:29;;;;;;;22.03;14.90;;;5.10;99.90;;;;;;6151434;28;20474;-62
2022/11/21 03:06:32;;;;;;;21.50;14.60;;;5.20;99.90;;;;;;6151653;28;20821;-62
2022/11/21 03:09:35;;;;;;;18.60;12.70;;;5.20;99.90;;;;;;6154845;28;20493;-62
2022/11/21 03:12:41;;;;;;;20.20;13.97;;;5.30;99.90;;;;;;6156253;28;20545;-62
2022/11/21 03:15:44;;;;;;;16.63;13.40;;;5.30;99.90;;;;;;6156110;28;20514;-62
2022/11/21 03:18:47;;;;;;;20.87;14.20;;;5.30;99.90;;;;;;6156959;28;20482;-63
2022/11/21 03:21:50;;;;;;;22.77;14.27;;;5.20;99.90;;;;;;6156123;28;20475;-63
2022/11/21 03:24:53;;;;;;;17.70;11.93;;;5.20;99.90;;;;;;6155662;28;20497;-63
2022/11/21 03:27:58;;;;;;;39.13;13.70;;;5.20;99.90;;;;;;6155644;28;20481;-62
2022/11/21 03:31:01;;;;;;;24.70;12.37;;;5.00;99.90;;;;;;6155600;28;20537;-62
2022/11/21 03:34:04;;;;;;;26.20;13.27;;;4.90;99.90;;;;;;6155674;28;20467;-62
2022/11/21 03:37:07;;;;;;;27.57;12.47;;;4.70;99.90;;;;;;6155581;28;20474;-62
2022/11/21 03:40:11;;;;;;;36.73;13.00;;;4.70;99.90;;;;;;6155583;28;20482;-62
2022/11/21 03:43:16;;;;;;;15.87;12.17;;;4.50;99.90;;;;;;6155369;28;20975;-62
2022/11/21 03:46:19;;;;;;;34.40;13.00;;;4.60;99.90;;;;;;6146709;28;20482;-62
2022/11/21 03:49:22;;;;;;;21.90;11.43;;;4.40;99.90;;;;;;6155289;28;20494;-63
2022/11/21 03:52:25;;;;;;;13.83;10.77;;;4.20;99.90;;;;;;6155411;28;20838;-62
2022/11/21 03:55:28;;;;;;;15.33;9.70;;;4.20;99.90;;;;;;6155096;28;20483;-62
2022/11/21 03:58:33;;;;;;;15.07;10.63;;;4.20;99.90;;;;;;6155166;28;20789;-62
2022/11/21 04:01:36;;;;;;;15.57;9.33;;;4.20;99.90;;;;;;6154796;28;20557;-62
2022/11/21 04:04:39;;;;;;;30.00;11.50;;;4.20;99.90;;;;;;6154631;28;20888;-62
2022/11/21 04:07:42;;;;;;;13.97;10.93;;;4.20;99.90;;;;;;6155097;28;20471;-62
2022/11/21 04:10:47;;;;;;;15.13;10.47;;;4.00;99.90;;;;;;6154655;28;20878;-61
2022/11/21 04:13:52;;;;;;;21.57;10.57;;;4.10;99.90;;;;;;6154634;28;20471;-61
2022/11/21 04:16:55;;;;;;;11.73;10.43;;;4.10;99.90;;;;;;6154607;28;20541;-62
2022/11/21 04:19:58;;;;;;;18.13;10.07;;;4.10;99.90;;;;;;6165579;28;20485;-62
2022/11/21 04:23:01;;;;;;;33.67;10.57;;;4.10;99.90;;;;;;6178381;28;20537;-62
2022/11/21 04:26:05;;;;;;;16.60;11.10;;;4.10;99.90;;;;;;6178239;28;20484;-62
2022/11/21 04:29:09;;;;;;;20.57;11.73;;;3.90;99.90;;;;;;6178319;28;20477;-62
2022/11/21 04:32:12;;;;;;;16.80;10.43;;;3.80;99.90;;;;;;6178156;28;20529;-62
2022/11/21 04:35:15;;;;;;;21.30;12.03;;;3.80;99.90;;;;;;6178286;28;20486;-61
2022/11/21 04:38:19;;;;;;;23.63;11.70;;;3.90;99.90;;;;;;6177966;28;20580;-61
2022/11/21 04:41:22;;;;;;;15.77;11.47;;;4.00;99.90;;;;;;6178093;28;20544;-62
2022/11/21 04:44:27;;;;;;;13.00;10.17;;;4.10;99.90;;;;;;6178501;28;20552;-61
2022/11/21 04:47:30;;;;;;;20.27;10.07;;;4.10;99.90;;;;;;6178526;28;20469;-61
2022/11/21 04:50:33;;;;;;;18.73;10.70;;;4.20;99.90;;;;;;6173910;28;20938;-62
2022/11/21 04:53:36;;;;;;;14.53;10.10;;;4.10;99.90;;;;;;6177683;28;20544;-62
2022/11/21 04:56:44;;;;;;;13.07;9.40;;;4.10;99.90;;;;;;6177689;28;20977;-62
2022/11/21 04:59:49;;;;;;;14.20;9.87;;;4.20;99.90;;;;;;6177532;28;20911;-62
2022/11/21 05:02:52;;;;;;;11.40;9.40;;;4.20;99.90;;;;;;6177189;28;20496;-62
2022/11/21 05:05:55;;;;;;;13.87;10.13;;;4.10;99.90;;;;;;6177416;28;20515;-62
2022/11/21 05:08:58;;;;;;;18.57;10.73;;;4.10;99.90;;;;;;6177667;28;20442;-62
2022/11/21 05:15:23;;;;;;;14.63;11.63;;;4.20;99.90;;;;;;6177290;28;20484;-62
2022/11/21 05:18:27;;;;;;;15.10;11.03;;;4.20;99.90;;;;;;6177901;28;20489;-62
2022/11/21 05:21:30;;;;;;;16.40;11.10;;;4.10;99.90;;;;;;6177160;28;21009;-62
2022/11/21 05:24:33;;;;;;;13.77;10.10;;;4.10;99.90;;;;;;6177168;28;20482;-62
2022/11/21 05:27:36;;;;;;;18.60;13.80;;;4.20;99.90;;;;;;6177032;28;20469;-62
2022/11/21 05:30:41;;;;;;;13.30;11.50;;;4.20;99.90;;;;;;6177123;28;20489;-62
2022/11/21 05:33:44;;;;;;;15.60;10.70;;;4.20;99.90;;;;;;6176688;28;20556;-62
2022/11/21 05:36:47;;;;;;;14.03;11.10;;;4.20;99.90;;;;;;6176576;28;20990;-62
2022/11/21 05:39:50;;;;;;;15.43;10.13;;;4.20;99.90;;;;;;6176956;28;20492;-62
2022/11/21 05:46:17;;;;;;;14.93;10.53;;;4.20;99.90;;;;;;6176725;28;20515;-62
2022/11/21 05:49:20;;;;;;;13.57;11.20;;;4.20;99.90;;;;;;6177151;28;20481;-62
2022/11/21 05:52:23;;;;;;;14.53;10.57;;;4.20;99.90;;;;;;6176718;28;20470;-62
2022/11/21 05:55:26;;;;;;;17.30;11.73;;;4.20;99.90;;;;;;6163569;28;20504;-62
2022/11/21 05:58:29;;;;;;;18.63;10.60;;;4.20;99.90;;;;;;6176772;28;20478;-63
2022/11/21 06:04:57;;;;;;;15.03;11.30;;;4.10;99.90;;;;;;6148157;28;20493;-62
2022/11/21 06:08:00;;;;;;;14.47;10.90;;;4.10;99.90;;;;;;6176622;28;20486;-62
2022/11/21 06:11:04;;;;;;;14.00;11.80;;;4.10;99.90;;;;;;6176560;28;20485;-62
2022/11/21 06:14:07;;;;;;;13.27;9.73;;;4.00;99.90;;;;;;6176233;28;20821;-62
2022/11/21 06:17:12;;;;;;;11.13;10.03;;;4.10;99.90;;;;;;6164640;28;20959;-63
2022/11/21 06:20:15;;;;;;;16.00;11.27;;;4.10;99.90;;;;;;6165476;28;20489;-63
2022/11/21 06:23:19;;;;;;;13.00;10.20;;;4.10;99.90;;;;;;6161181;28;20848;-63
2022/11/21 06:26:24;;;;;;;17.27;10.47;;;4.10;99.90;;;;;;6161144;28;20550;-63
2022/11/21 06:29:27;;;;;;;12.83;10.20;;;4.10;99.90;;;;;;6166299;28;20478;-63
2022/11/21 06:32:36;;;;;;;14.10;10.43;;;4.00;99.90;;;;;;6160381;28;20477;-62
2022/11/21 06:35:40;;;;;;;12.60;10.50;;;4.00;99.90;;;;;;6163069;28;20474;-62
2022/11/21 06:38:43;;;;;;;12.00;10.60;;;4.00;99.90;;;;;;6162475;28;20484;-61
2022/11/21 06:41:49;;;;;;;12.90;9.97;;;4.10;99.90;;;;;;6160117;28;20549;-61
2022/11/21 06:44:53;;;;;;;12.60;10.30;;;4.20;99.90;;;;;;6163863;28;20495;-61
2022/11/21 06:48:01;;;;;;;14.50;9.90;;;4.20;99.90;;;;;;6156883;28;20787;-62
2022/11/21 06:51:05;;;;;;;14.93;11.37;;;4.40;99.90;;;;;;6156813;28;20454;-62
2022/11/21 06:54:08;;;;;;;12.90;10.77;;;4.50;99.90;;;;;;6156751;28;20475;-61
2022/11/21 06:57:18;;;;;;;14.80;10.57;;;4.50;99.90;;;;;;6160652;28;20466;-61
2022/11/21 07:00:23;;;;;;;14.90;12.23;;;4.50;99.90;;;;;;6165215;28;20961;-61
2022/11/21 07:03:28;;;;;;;15.40;12.13;;;4.50;99.90;;;;;;6167626;28;20792;-61
2022/11/21 07:06:31;;;;;;;10.37;8.83;;;4.50;99.90;;;;;;6174826;28;20508;-61
2022/11/21 07:09:34;;;;;;;12.87;9.70;;;4.50;99.90;;;;;;6180623;28;20477;-62
2022/11/21 07:16:02;;;;;;;10.87;9.50;;;4.20;99.90;;;;;;6180856;28;20489;-62
2022/11/21 07:19:06;;;;;;;11.97;10.60;;;4.30;99.90;;;;;;6180461;28;20492;-62
2022/11/21 07:22:09;;;;;;;13.00;9.73;;;4.50;99.90;;;;;;6180258;28;20481;-62
2022/11/21 07:25:13;;;;;;;13.13;9.97;;;4.60;99.90;;;;;;6180240;28;20560;-62
2022/11/21 07:28:16;;;;;;;12.93;10.40;;;4.70;99.90;;;;;;6180658;28;20477;-62
2022/11/21 07:31:19;;;;;;;14.60;11.43;;;4.70;99.90;;;;;;6180516;28;20470;-63
2022/11/21 07:34:23;;;;;;;15.77;11.37;;;4.70;99.90;;;;;;6180202;28;20496;-62
2022/11/21 07:37:27;;;;;;;16.30;12.27;;;4.70;99.90;;;;;;6179886;28;20974;-62
2022/11/21 07:40:32;;;;;;;12.83;10.73;;;4.80;99.90;;;;;;6180031;28;20474;-63
2022/11/21 07:43:35;;;;;;;15.23;11.27;;;4.80;99.90;;;;;;6179606;28;20473;-63
2022/11/21 07:46:38;;;;;;;13.90;11.60;;;4.60;99.90;;;;;;6180136;28;20489;-63
2022/11/21 07:49:43;;;;;;;17.87;12.90;;;4.50;99.90;;;;;;6179122;28;20481;-61
2022/11/21 07:52:46;;;;;;;15.87;11.53;;;4.60;99.90;;;;;;6179517;28;20485;-61
2022/11/21 07:55:49;;;;;;;14.10;12.20;;;4.60;99.90;;;;;;6178891;28;20849;-61
2022/11/21 07:58:52;;;;;;;15.30;11.30;;;4.70;99.90;;;;;;6178658;28;20473;-61
2022/11/21 08:01:56;;;;;;;12.97;10.93;;;4.90;99.90;;;;;;6172597;28;20470;-62
2022/11/21 08:05:00;;;;;;;10.67;9.57;;;5.10;99.90;;;;;;6196092;28;20473;-61
2022/11/21 08:08:04;;;;;;;14.50;12.20;;;5.40;99.90;;;;;;6203175;28;20565;-62
2022/11/21 08:11:08;;;;;;;13.60;10.33;;;5.30;99.90;;;;;;6203426;28;20479;-62
2022/11/21 08:14:11;;;;;;;14.90;11.57;;;5.50;99.90;;;;;;6203375;28;20480;-62
2022/11/21 08:17:14;;;;;;;12.37;10.90;;;5.80;99.90;;;;;;6203914;28;20476;-62
2022/11/21 08:20:18;;;;;;;10.80;9.37;;;5.90;99.90;;;;;;6205060;28;20798;-62
2022/11/21 08:23:22;;;;;;;11.13;9.77;;;6.10;99.90;;;;;;6203293;28;20957;-62
2022/11/21 08:26:25;;;;;;;10.43;9.30;;;6.40;99.90;;;;;;6203095;28;20480;-61
2022/11/21 08:29:28;;;;;;;13.00;10.97;;;6.70;99.90;;;;;;6203020;28;20512;-60
2022/11/21 08:32:31;;;;;;;11.40;10.10;;;7.00;99.90;;;;;;6203290;28;20980;-60
2022/11/21 08:35:37;;;;;;;13.70;12.10;;;7.20;99.90;;;;;;6202832;28;20996;-61
2022/11/21 08:38:40;;;;;;;16.17;10.50;;;7.50;99.90;;;;;;6202540;28;20758;-61
2022/11/21 08:45:05;;;;;;;12.70;10.20;;;7.90;99.90;;;;;;6204677;28;20817;-61
2022/11/21 08:48:11;;;;;;;11.50;10.40;;;8.20;99.90;;;;;;6198155;28;20968;-61
2022/11/21 08:51:16;;;;;;;13.90;10.63;;;8.50;99.90;;;;;;6197154;28;20465;-63
2022/11/21 08:54:22;;;;;;;10.13;9.03;;;8.80;99.90;;;;;;6189436;28;20480;-64
2022/11/21 08:57:25;;;;;;;10.43;8.83;;;9.10;99.90;;;;;;6191296;28;20789;-64
2022/11/21 09:00:29;;;;;;;10.73;9.20;;;9.20;99.90;;;;;;6191871;28;20472;-64
2022/11/21 09:03:32;;;;;;;9.57;8.60;;;9.10;99.90;;;;;;6190032;28;20494;-62
2022/11/21 09:06:37;;;;;;;9.80;8.80;;;8.80;99.90;;;;;;6204916;22;20473;-62
2022/11/21 09:09:40;;;;;;;10.47;9.23;;;8.70;99.90;;;;;;6190783;28;20477;-61
2022/11/21 09:12:44;;;;;;;10.43;9.30;;;8.50;99.90;;;;;;6217528;28;20468;-61
2022/11/21 09:19:07;;;;;;;11.77;8.93;;;8.80;99.90;;;;;;6201643;28;20511;-61
2022/11/21 09:22:12;;;;;;;11.83;9.07;;;9.00;99.90;;;;;;6201233;28;20469;-60
2022/11/21 09:25:15;;;;;;;12.47;11.17;;;9.30;99.90;;;;;;6202315;28;20544;-61
2022/11/21 09:28:18;;;;;;;13.57;11.80;;;9.60;99.90;;;;;;6203881;28;20464;-62
2022/11/21 09:31:21;;;;;;;15.30;11.87;;;9.50;99.90;;;;;;6190085;28;20465;-60
2022/11/21 09:34:24;;;;;;;14.00;11.60;;;9.40;99.90;;;;;;6188540;28;20477;-60
2022/11/21 09:37:29;;;;;;;15.83;12.87;;;9.40;99.90;;;;;;6187787;28;20472;-59
2022/11/21 09:40:34;;;;;;;12.50;11.27;;;8.90;99.90;;;;;;6188245;28;20466;-60
2022/11/21 09:43:47;;;;;;;13.50;12.10;;;8.80;99.90;;;;;;6190196;28;20480;-59
2022/11/21 09:47:03;;;;;;;13.17;11.77;;;8.70;99.90;;;;;;6201453;28;21048;-61
2022/11/21 09:50:21;;;;;;;12.73;10.60;;;8.50;99.90;;;;;;6201286;28;20481;-61
2022/11/21 09:53:30;;;;;;;11.43;10.33;;;8.50;99.90;;;;;;6195566;28;20474;-60
2022/11/21 09:56:38;;;;;;;11.77;10.57;;;8.50;99.90;;;;;;6195118;28;20480;-65
2022/11/21 09:59:41;;;;;;;13.47;10.73;;;8.80;99.90;;;;;;6183297;28;20466;-64
2022/11/21 10:02:46;;;;;;;12.13;10.00;;;9.10;99.90;;;;;;6190174;28;20946;-63
2022/11/21 10:05:53;;;;;;;13.83;10.60;;;9.30;99.90;;;;;;6204799;28;20469;-58
2022/11/21 10:09:04;;;;;;;11.97;9.73;;;9.60;99.90;;;;;;6195796;28;20427;-63
2022/11/21 10:15:51;;;;;;;13.47;9.70;;;10.50;99.90;;;;;;6205293;28;20536;-60
2022/11/21 10:19:21;;;;;;;11.27;9.07;;;12.60;99.10;;;;;;6207673;28;20473;-59
2022/11/21 10:22:40;;;;;;;10.70;9.60;;;16.70;92.40;;;;;;6209860;28;20485;-58
2022/11/21 10:25:50;;;;;;;9.67;8.47;;;19.20;72.40;;;;;;6210342;28;20478;-64
2022/11/21 10:28:59;;;;;;;12.70;11.40;;;18.40;67.10;;;;;;6234788;28;20469;-61
2022/11/21 10:32:17;;;;;;;11.97;10.73;;;17.40;66.80;;;;;;6234462;28;20484;-64
2022/11/21 10:35:22;;;;;;;9.57;8.60;;;16.60;68.60;;;;;;6230449;28;20509;-65
2022/11/21 10:38:28;;;;;;;10.53;8.60;;;15.90;68.70;;;;;;6207049;28;20558;-63
2022/11/21 10:41:42;;;;;;;14.90;9.43;;;15.30;70.90;;;;;;6205604;28;20481;-63
2022/11/21 10:48:08;;;;;;;9.50;8.70;;;14.40;74.90;;;;;;6201548;28;20788;-65
2022/11/21 10:51:26;;;;;;;10.20;9.30;;;14.00;76.10;;;;;;6188041;28;20457;-65
2022/11/21 10:54:32;;;;;;;11.30;9.40;;;13.60;78.30;;;;;;6199943;28;20484;-63
2022/11/21 10:57:42;;;;;;;10.60;9.57;;;13.30;79.90;;;;;;6192784;28;20485;-65
2022/11/21 11:00:57;;;;;;;13.43;9.17;;;13.50;82.10;;;;;;6181529;28;20469;-66
2022/11/21 11:04:16;;;;;;;9.60;8.70;;;13.80;80.90;;;;;;6180417;28;20496;-66
2022/11/21 11:07:40;;;;;;;9.40;8.40;;;14.90;79.30;;;;;;6188397;28;20507;-64
2022/11/21 11:10:45;;;;;;;10.20;8.77;;;18.10;71.10;;;;;;6214201;28;20480;-64
2022/11/21 11:13:59;;;;;;;11.93;9.30;;;20.20;61.20;;;;;;6203135;28;20456;-62
2022/11/21 11:17:02;;;;;;;10.07;9.07;;;20.20;59.40;;;;;;6183299;28;20245;-64
2022/11/21 11:20:28;;;;;;;10.50;9.60;;;19.80;57.40;;;;;;6186975;28;20226;-65
2022/11/21 11:23:31;;;;;;;12.47;8.80;;;20.10;58.70;;;;;;6182550;28;20245;-64
2022/11/21 11:26:34;;;;;;;10.70;9.83;;;24.40;52.30;;;;;;6192444;28;20237;-64
2022/11/21 11:29:53;;;;;;;10.67;9.70;;;27.40;43.40;;;;;;6194803;28;20240;-64
2022/11/21 11:32:57;;;;;;;9.90;9.20;;;30.00;35.60;;;;;;6187760;28;20551;-66
2022/11/21 11:36:14;;;;;;;11.67;10.47;;;31.70;31.30;;;;;;6181921;28;20237;-65
2022/11/21 11:39:27;;;;;;;9.90;9.02;;;33.10;28.20;;;;;;6184580;28;20246;-65
2022/11/21 11:50:14;;;;;;;9.35;8.57;;;35.30;23.60;;;;;;6179850;28;20326;-65
2022/11/21 11:53:20;;;;;;;9.15;8.52;;;35.20;22.80;;;;;;6182029;28;20237;-65
2022/11/21 11:56:27;;;;;;;8.95;8.25;;;35.80;22.20;;;;;;6185149;28;20234;-65
2022/11/21 11:59:36;;;;;;;9.88;9.07;;;36.50;21.60;;;;;;6203466;28;20577;-66
2022/11/21 12:02:50;;;;;;;11.98;11.00;;;37.20;20.70;;;;;;6199899;28;20240;-65
2022/11/21 12:06:02;;;;;;;14.18;12.75;;;37.80;19.90;;;;;;6198340;28;20235;-65
2022/11/21 12:09:20;;;;;;;11.00;10.10;;;36.30;20.00;;;;;;6194386;28;20236;-66
2022/11/21 12:12:33;;;;;;;9.65;8.60;;;33.50;21.80;;;;;;6192826;28;20232;-65
2022/11/21 12:15:49;;;;;;;10.47;9.57;;;32.20;22.70;;;;;;6205196;28;20674;-65
2022/11/21 12:18:59;;;;;;;14.40;13.10;;;29.90;25.10;;;;;;6188537;28;20236;-65
2022/11/21 12:22:05;;;;;;;16.10;14.60;;;29.20;26.10;;;;;;6181290;28;20237;-65
2022/11/21 12:25:12;;;;;;;10.90;9.90;;;30.30;25.40;;;;;;6155811;28;20234;-65
2022/11/21 12:28:23;;;;;;;10.35;9.38;;;31.30;25.10;;;;;;6155862;28;20318;-63
2022/11/21 12:31:32;;;;;;;11.55;10.02;;;33.20;23.40;;;;;;6154048;28;20230;-63
2022/11/21 12:34:56;;;;;;;10.63;9.60;;;34.00;22.30;;;;;;6153576;28;20227;-63
2022/11/21 12:38:10;;;;;;;9.48;8.57;;;33.90;22.70;;;;;;6153610;28;20710;-63
2022/11/21 12:44:56;;;;;;;9.77;8.77;;;32.40;22.90;;;;;;6153210;28;20573;-62
2022/11/21 12:55:37;;;;;;;9.55;8.27;;;33.40;22.70;;;;;;6151414;28;20242;-63
2022/11/21 12:58:46;;;;;;;9.95;8.43;;;34.40;22.00;;;;;;6155385;28;20242;-63
2022/11/21 13:01:58;;;;;;;9.70;8.90;;;34.90;21.70;;;;;;6164918;28;20240;-63
2022/11/21 13:05:05;;;;;;;10.68;9.85;;;35.10;21.30;;;;;;6178405;28;20245;-63
2022/11/21 13:08:14;;;;;;;12.27;11.02;;;35.00;21.40;;;;;;6178058;28;20674;-64
2022/11/21 13:15:04;;;;;;;10.40;9.50;;;34.70;21.30;;;;;;6178824;28;20542;-63
2022/11/21 13:18:19;;;;;;;11.70;10.63;;;34.10;21.70;;;;;;6178604;28;20206;-63
2022/11/21 13:21:41;;;;;;;12.40;11.20;;;31.80;23.20;;;;;;6174201;28;20327;-63
2022/11/21 13:25:00;;;;;;;14.87;13.57;;;29.80;25.00;;;;;;6178164;28;20229;-63
2022/11/21 13:28:38;;;;;;;17.87;16.10;;;26.70;27.80;;;;;;6178577;28;20230;-63
2022/11/21 13:31:42;;;;;;;27.13;23.03;;;25.20;29.90;;;;;;6174919;28;20581;-63
2022/11/21 13:34:45;;;;;;;20.03;17.97;;;24.90;31.00;;;;;;6178022;28;20535;-63
2022/11/21 13:38:02;;;;;;;19.00;17.50;;;25.80;30.70;;;;;;6178194;28;20237;-63
2022/11/21 13:44:39;;;;;;;18.77;17.17;;;28.50;28.10;;;;;;6178193;28;20234;-63
2022/11/21 13:48:33;;;;;;;28.97;26.57;;;28.80;27.50;;;;;;6177931;28;20234;-63
2022/11/21 13:51:55;;;;;;;22.27;20.40;;;28.80;27.70;;;;;;6178283;28;20221;-63
2022/11/21 13:55:16;;;;;;;15.33;14.00;;;28.10;28.40;;;;;;6178104;28;20552;-63
2022/11/21 13:58:33;;;;;;;12.33;11.23;;;27.60;28.70;;;;;;6177870;28;20240;-63
2022/11/21 14:01:58;;;;;;;12.30;11.10;;;26.20;30.00;;;;;;6177778;28;20685;-63
2022/11/21 14:05:18;;;;;;;14.30;12.83;;;23.80;33.30;;;;;;6177748;28;20242;-63
2022/11/21 14:08:23;;;;;;;12.60;11.60;;;22.50;35.40;;;;;;6177161;28;20222;-63
2022/11/21 14:11:36;;;;;;;11.77;10.77;;;20.70;37.80;;;;;;6177524;28;20651;-63
2022/11/21 14:14:46;;;;;;;15.73;14.10;;;18.90;41.00;;;;;;6176749;28;20678;-63
2022/11/21 14:17:51;;;;;;;14.10;12.70;;;17.40;44.10;;;;;;6176984;28;20484;-63
2022/11/21 14:20:57;;;;;;;10.00;9.10;;;16.50;46.40;;;;;;6176616;28;20465;-63
2022/11/21 14:24:03;;;;;;;12.10;10.90;;;15.70;48.50;;;;;;6176114;28;20462;-62
2022/11/21 14:27:15;;;;;;;11.30;10.10;;;15.00;50.30;;;;;;6176990;28;20439;-63
2022/11/21 14:30:35;;;;;;;10.57;9.50;;;14.20;53.10;;;;;;6176820;28;20481;-64
2022/11/21 14:33:40;;;;;;;9.30;8.40;;;13.10;56.80;;;;;;6176388;28;20478;-62
2022/11/21 14:36:43;;;;;;;11.83;10.20;;;12.50;59.30;;;;;;6176588;28;20473;-64
2022/11/21 14:39:46;;;;;;;13.70;10.47;;;12.20;62.90;;;;;;6178327;28;20488;-64
2022/11/21 14:43:00;;;;;;;10.57;9.50;;;11.90;68.30;;;;;;6177432;28;20474;-64
2022/11/21 14:46:05;;;;;;;11.90;10.67;;;11.50;72.70;;;;;;6176650;28;20774;-63
2022/11/21 14:49:22;;;;;;;12.40;11.10;;;11.20;77.80;;;;;;6176310;28;20577;-65
2022/11/21 14:52:27;;;;;;;13.30;9.47;;;11.00;81.10;;;;;;6182172;28;20473;-64
2022/11/21 14:55:32;;;;;;;9.90;8.90;;;10.80;84.40;;;;;;6192134;28;20474;-65
2022/11/21 14:58:35;;;;;;;12.40;10.70;;;10.50;87.00;;;;;;6189209;28;20484;-63
2022/11/21 15:01:40;;;;;;;12.23;9.77;;;10.40;88.50;;;;;;6194159;28;20470;-65
2022/11/21 15:04:52;;;;;;;10.40;9.40;;;10.40;90.00;;;;;;6179347;28;20485;-64
2022/11/21 15:07:56;;;;;;;11.90;10.37;;;10.40;90.80;;;;;;6185993;28;20806;-63
2022/11/21 15:11:23;;;;;;;11.93;10.03;;;10.40;92.20;;;;;;6185247;28;20572;-64
2022/11/21 15:14:31;;;;;;;10.17;9.17;;;10.30;93.40;;;;;;6182465;28;20803;-64
2022/11/21 15:17:38;;;;;;;13.63;11.80;;;10.20;94.60;;;;;;6185053;28;20842;-65
2022/11/21 15:21:03;;;;;;;12.53;10.93;;;10.00;95.80;;;;;;6180315;28;20596;-64
2022/11/21 15:24:17;;;;;;;10.97;9.87;;;10.00;96.60;;;;;;6181517;28;20470;-63
2022/11/21 15:27:29;;;;;;;11.60;9.50;;;9.90;97.90;;;;;;6176138;28;20804;-63
2022/11/21 15:30:33;;;;;;;12.63;11.30;;;9.80;98.40;;;;;;6180106;28;20466;-66
2022/11/21 15:33:57;;;;;;;11.30;10.20;;;9.80;98.70;;;;;;6185451;28;20473;-66
2022/11/21 15:37:22;;;;;;;13.07;11.13;;;9.90;99.00;;;;;;6180948;28;20974;-65
2022/11/21 15:40:26;;;;;;;31.13;21.87;;;9.90;99.10;;;;;;6179799;28;20954;-65
2022/11/21 15:43:43;;;;;;;45.73;37.00;;;9.90;99.20;;;;;;6181863;28;20841;-64
2022/11/21 15:46:46;;;;;;;37.50;29.60;;;9.90;99.30;;;;;;6182405;28;20806;-63
2022/11/21 15:49:50;;;;;;;20.37;17.43;;;9.80;99.30;;;;;;6182866;28;20540;-64
2022/11/21 15:52:54;;;;;;;13.17;11.53;;;9.80;99.40;;;;;;6178652;28;20482;-65
2022/11/21 15:55:57;;;;;;;13.13;11.70;;;9.80;99.50;;;;;;6180402;28;20480;-65
2022/11/21 15:59:01;;;;;;;12.50;11.40;;;9.70;99.60;;;;;;6181467;28;20500;-64
2022/11/21 16:02:04;;;;;;;13.70;10.93;;;9.70;99.70;;;;;;6181133;28;20969;-61
2022/11/21 16:05:12;;;;;;;25.47;19.57;;;9.60;99.90;;;;;;6202228;28;20493;-64
2022/11/21 16:08:16;;;;;;;26.40;23.50;;;9.50;99.90;;;;;;6202880;28;20477;-64
2022/11/21 16:11:23;;;;;;;29.80;26.63;;;9.50;99.90;;;;;;6201233;28;20473;-65
2022/11/21 16:14:26;;;;;;;18.27;16.33;;;9.40;99.90;;;;;;6201666;28;20492;-64
2022/11/21 16:17:29;;;;;;;14.47;12.97;;;9.40;99.90;;;;;;6201644;28;20841;-63
2022/11/21 16:20:34;;;;;;;12.80;11.50;;;9.30;99.90;;;;;;6201556;28;20472;-63
2022/11/21 16:23:39;;;;;;;13.00;11.80;;;9.20;99.90;;;;;;6188280;28;20564;-64
2022/11/21 16:26:42;;;;;;;15.63;14.03;;;9.20;99.90;;;;;;6177531;28;20513;-64
2022/11/21 16:29:45;;;;;;;14.63;13.10;;;9.10;99.90;;;;;;6176957;28;20474;-63
2022/11/21 16:32:50;;;;;;;13.80;11.17;;;9.10;99.90;;;;;;6176780;28;20492;-63
2022/11/21 16:35:55;;;;;;;12.17;11.07;;;9.00;99.90;;;;;;6176120;28;20469;-64
2022/11/21 16:39:00;;;;;;;14.50;12.80;;;8.90;99.90;;;;;;6176457;28;20505;-64
2022/11/21 16:42:12;;;;;;;20.23;14.30;;;8.80;99.90;;;;;;6176960;28;20938;-63
2022/11/21 16:45:15;;;;;;;14.23;12.77;;;8.80;99.90;;;;;;6176340;28;20481;-65
2022/11/21 16:48:20;;;;;;;13.40;11.53;;;8.70;99.90;;;;;;6176335;28;20488;-64
2022/11/21 16:51:25;;;;;;;12.17;10.37;;;8.60;99.90;;;;;;6176273;28;20474;-63
2022/11/21 16:54:29;;;;;;;13.50;12.07;;;8.50;99.90;;;;;;6176282;28;20493;-64